Aeroporto :
LOGIN :

Iscrizione | Disclaimer

   EN    FR    IT 

 










Sommario :    VFR   VFR Marginale   IFR   IFR Intensivo   IFR Molto Intensivo
Visibilità : 
Base nubi : 
>= 8 km
>= 3000ft
5 / 8 km
1000 / 3000 ft
1500m / 5 km
500 / 1000 ft
800 / 1500m
200 / 500 ft
< 800m
< 200 ft
Simboli :   Temporali  Nebbia  Neve Forte  Precipitazioni Forti  Vento > 20 kt
SIGMETs :   Varie  Temporali  Ghiacco  Turbolenza  Onda orograficha  Ceneri Vulcaniche






- Altitudine del aeroporto : 355 ft
- Codice IATA : VBS


LIPO - Montichiari - Brescia

ULTIMO METAR :
  • 162320Z AUTO VRB01KT 9999 NCD 19/15 Q1013

METARs OBSOLETI :
  • 162250Z AUTO 06003KT 9999 NCD 19/15 Q1013
  • 162220Z AUTO 02003KT 9999 NCD 20/16 Q1013
  • 162150Z AUTO VRB01KT 9999 NCD 20/16 Q1013
  • 162120Z AUTO 34003KT 9999 NCD 21/16 Q1013
  • 162050Z AUTO VRB01KT 9999 NCD 22/16 Q1012
  • 162020Z AUTO 20002KT 9999 NCD 23/16 Q1012
  • 161950Z AUTO 22004KT 9999 NCD 23/15 Q1012
  • 161920Z AUTO 24004KT 9999 ///////// 24/15 Q1011
  • 161850Z AUTO 24004KT 9999 NCD 25/15 Q1011

TAF TAF LIPO
Valido dal 17 a 00 ore il 18 a 00 ore UTC


162300Z 1700/1724 VRB04KT 9999 FEW045



MetMap, La meteo Aeronautica in un colpo d'occhio ! - Copyright ORBIFLY Dicembre 2007 - Disclaimer

ORBIFLY MET'MAP TEAM :

Programmazione e sviluppo : Alexandra Zaïnal
Concezione : Baudouin d'Aumeries
Supporto tecnico e logistico : Manuel Goepfert
Aiuto : Marc-Olivier Méhu
Aiuto per la traduzione : Arnaldo La Scala




FONTI E CREDITI :

   NOAA